Terminal Aerodrome Forecast
Issued by NWS

Home | Current Version | Previous Version | Graphics & Text | Print | Product List | Glossary On
Versions: 1 2 3 4 5 6 7 8 9 10 11 12 13 14 15
163
FTUS43 KICT 191734
TAFCNU
TAF
KCNU 191734Z 1918/2018 19016G24KT P6SM FEW250
     FM200100 18011KT P6SM FEW250
     FM200900 19014KT P6SM BKN009
     FM201400 19014KT P6SM BKN004
     FM201600 19013KT P6SM BKN008=

USA.gov is the U.S. government's official web portal to all federal, state and local government web resources and services.